sensor_id;sensor_type;location;lat;lon;timestamp;pressure;altitude;pressure_sealevel;temperature;humidity
64538;BME280;50921;53.132;18.042;2022-08-01T00:13:58;100888.25;;;14.75;60.60
64538;BME280;50921;53.132;18.042;2022-08-01T00:28:59;100884.50;;;14.51;61.70
64538;BME280;50921;53.132;18.042;2022-08-01T00:44:04;100882.70;;;14.46;62.28
64538;BME280;50921;53.132;18.042;2022-08-01T00:59:06;100867.20;;;14.31;62.73
64538;BME280;50921;53.132;18.042;2022-08-01T01:14:10;100862.92;;;14.19;62.99
64538;BME280;50921;53.132;18.042;2022-08-01T01:29:25;100868.33;;;14.06;62.46
64538;BME280;50921;53.132;18.042;2022-08-01T01:44:30;100857.84;;;13.78;63.15
64538;BME280;50921;53.132;18.042;2022-08-01T01:59:34;100855.34;;;13.71;63.27
64538;BME280;50921;53.132;18.042;2022-08-01T02:14:37;100852.35;;;13.47;63.80
64538;BME280;50921;53.132;18.042;2022-08-01T02:29:57;100853.26;;;13.29;64.07
64538;BME280;50921;53.132;18.042;2022-08-01T02:45:02;100850.02;;;13.20;64.39
64538;BME280;50921;53.132;18.042;2022-08-01T03:00:05;100847.41;;;13.26;64.06
64538;BME280;50921;53.132;18.042;2022-08-01T03:15:09;100847.29;;;13.21;63.93
64538;BME280;50921;53.132;18.042;2022-08-01T03:30:12;100849.89;;;13.05;64.39
64538;BME280;50921;53.132;18.042;2022-08-01T03:45:25;100846.27;;;12.89;63.96
64538;BME280;50921;53.132;18.042;2022-08-01T04:00:30;100843.05;;;13.32;64.85
64538;BME280;50921;53.132;18.042;2022-08-01T04:15:32;100838.09;;;14.06;63.93
64538;BME280;50921;53.132;18.042;2022-08-01T04:30:34;100842.98;;;14.60;63.54
64538;BME280;50921;53.132;18.042;2022-08-01T04:45:36;100847.63;;;14.83;63.08
64538;BME280;50921;53.132;18.042;2022-08-01T05:00:39;100853.16;;;15.22;64.64
64538;BME280;50921;53.132;18.042;2022-08-01T05:15:40;100864.89;;;15.39;63.08
64538;BME280;50921;53.132;18.042;2022-08-01T05:30:40;100864.14;;;15.43;63.64
64538;BME280;50921;53.132;18.042;2022-08-01T05:45:41;100859.62;;;15.39;63.95
64538;BME280;50921;53.132;18.042;2022-08-01T06:00:43;100849.76;;;15.47;64.56
64538;BME280;50921;53.132;18.042;2022-08-01T06:15:45;100842.48;;;15.76;64.79
64538;BME280;50921;53.132;18.042;2022-08-01T06:30:47;100839.50;;;15.84;64.43
64538;BME280;50921;53.132;18.042;2022-08-01T06:45:50;100850.16;;;15.88;65.67
64538;BME280;50921;53.132;18.042;2022-08-01T07:00:50;100839.53;;;16.19;65.59
64538;BME280;50921;53.132;18.042;2022-08-01T07:15:52;100863.29;;;16.78;64.63
64538;BME280;50921;53.132;18.042;2022-08-01T07:30:53;100855.75;;;17.46;63.85
64538;BME280;50921;53.132;18.042;2022-08-01T07:45:54;100854.08;;;17.45;63.75
64538;BME280;50921;53.132;18.042;2022-08-01T08:00:55;100851.80;;;17.22;63.90
64538;BME280;50921;53.132;18.042;2022-08-01T08:15:56;100857.30;;;17.52;63.41
64538;BME280;50921;53.132;18.042;2022-08-01T08:30:57;100870.69;;;17.65;63.88
64538;BME280;50921;53.132;18.042;2022-08-01T08:46:01;100861.00;;;18.07;63.36
64538;BME280;50921;53.132;18.042;2022-08-01T09:01:07;100871.82;;;18.31;63.67
64538;BME280;50921;53.132;18.042;2022-08-01T09:16:15;100875.42;;;18.62;63.25
64538;BME280;50921;53.132;18.042;2022-08-01T09:31:17;100890.98;;;18.61;62.84
64538;BME280;50921;53.132;18.042;2022-08-01T09:46:19;100883.30;;;18.54;62.97
64538;BME280;50921;53.132;18.042;2022-08-01T10:01:21;100889.30;;;18.78;63.33
64538;BME280;50921;53.132;18.042;2022-08-01T10:16:24;100886.20;;;19.23;62.79
64538;BME280;50921;53.132;18.042;2022-08-01T10:31:25;100884.27;;;19.98;62.32
64538;BME280;50921;53.132;18.042;2022-08-01T10:46:34;100864.64;;;20.45;62.00
64538;BME280;50921;53.132;18.042;2022-08-01T11:01:37;100858.86;;;20.83;61.39
64538;BME280;50921;53.132;18.042;2022-08-01T11:16:40;100856.62;;;21.32;60.72
64538;BME280;50921;53.132;18.042;2022-08-01T11:31:43;100849.55;;;22.03;59.05
64538;BME280;50921;53.132;18.042;2022-08-01T12:01:52;100850.78;;;23.08;56.53
64538;BME280;50921;53.132;18.042;2022-08-01T12:16:54;100840.71;;;23.14;55.91
64538;BME280;50921;53.132;18.042;2022-08-01T12:31:55;100838.45;;;23.07;55.15
64538;BME280;50921;53.132;18.042;2022-08-01T12:46:56;100838.28;;;23.23;54.42
64538;BME280;50921;53.132;18.042;2022-08-01T13:02:07;100836.98;;;23.64;53.42
64538;BME280;50921;53.132;18.042;2022-08-01T13:17:04;100834.52;;;23.88;53.06
64538;BME280;50921;53.132;18.042;2022-08-01T13:32:19;100831.77;;;24.07;52.83
64538;BME280;50921;53.132;18.042;2022-08-01T13:47:21;100830.36;;;24.22;51.72
64538;BME280;50921;53.132;18.042;2022-08-01T14:02:22;100839.20;;;24.44;51.02
64538;BME280;50921;53.132;18.042;2022-08-01T14:17:22;100842.23;;;24.52;50.65
64538;BME280;50921;53.132;18.042;2022-08-01T14:32:24;100847.59;;;24.52;50.56
64538;BME280;50921;53.132;18.042;2022-08-01T14:47:26;100846.23;;;24.56;50.37
64538;BME280;50921;53.132;18.042;2022-08-01T15:02:26;100844.25;;;24.75;49.87
64538;BME280;50921;53.132;18.042;2022-08-01T15:17:29;100854.88;;;24.69;49.48
64538;BME280;50921;53.132;18.042;2022-08-01T15:32:32;100852.64;;;24.72;49.55
64538;BME280;50921;53.132;18.042;2022-08-01T15:47:32;100846.97;;;24.71;49.18
64538;BME280;50921;53.132;18.042;2022-08-01T16:02:34;100848.90;;;24.67;48.84
64538;BME280;50921;53.132;18.042;2022-08-01T16:17:35;100843.41;;;24.64;48.67
64538;BME280;50921;53.132;18.042;2022-08-01T16:32:36;100848.81;;;24.49;48.55
64538;BME280;50921;53.132;18.042;2022-08-01T16:47:37;100853.45;;;24.40;48.23
64538;BME280;50921;53.132;18.042;2022-08-01T17:02:39;100859.20;;;24.37;48.01
64538;BME280;50921;53.132;18.042;2022-08-01T17:17:41;100874.00;;;24.29;47.96
64538;BME280;50921;53.132;18.042;2022-08-01T17:32:42;100883.80;;;24.22;47.71
64538;BME280;50921;53.132;18.042;2022-08-01T17:47:43;100887.53;;;24.17;47.63
64538;BME280;50921;53.132;18.042;2022-08-01T18:02:43;100899.69;;;24.08;48.18
64538;BME280;50921;53.132;18.042;2022-08-01T18:17:44;100912.28;;;23.89;48.63
64538;BME280;50921;53.132;18.042;2022-08-01T18:32:46;100918.48;;;23.70;48.90
64538;BME280;50921;53.132;18.042;2022-08-01T18:47:47;100931.11;;;23.58;49.52
64538;BME280;50921;53.132;18.042;2022-08-01T19:02:49;100943.40;;;23.33;49.73
64538;BME280;50921;53.132;18.042;2022-08-01T19:17:49;100964.43;;;23.09;49.93
64538;BME280;50921;53.132;18.042;2022-08-01T19:32:51;100990.63;;;22.78;50.16
64538;BME280;50921;53.132;18.042;2022-08-01T19:47:55;101003.78;;;22.52;50.43
64538;BME280;50921;53.132;18.042;2022-08-01T20:02:57;101023.67;;;22.38;50.49
64538;BME280;50921;53.132;18.042;2022-08-01T20:18:01;101025.54;;;22.29;50.46
64538;BME280;50921;53.132;18.042;2022-08-01T20:33:02;101035.36;;;22.24;50.40
64538;BME280;50921;53.132;18.042;2022-08-01T20:48:06;101041.87;;;22.17;50.69
64538;BME280;50921;53.132;18.042;2022-08-01T21:03:21;101048.89;;;22.02;51.15
64538;BME280;50921;53.132;18.042;2022-08-01T21:18:22;101047.74;;;21.96;51.10
64538;BME280;50921;53.132;18.042;2022-08-01T21:33:27;101050.26;;;21.86;51.03
64538;BME280;50921;53.132;18.042;2022-08-01T21:48:29;101070.59;;;21.70;51.13
64538;BME280;50921;53.132;18.042;2022-08-01T22:18:43;101101.20;;;21.54;51.42
64538;BME280;50921;53.132;18.042;2022-08-01T22:33:45;101116.63;;;21.46;51.27
64538;BME280;50921;53.132;18.042;2022-08-01T23:04:38;101129.72;;;21.35;51.28
64538;BME280;50921;53.132;18.042;2022-08-01T23:19:45;101145.17;;;21.23;51.59
64538;BME280;50921;53.132;18.042;2022-08-01T23:34:46;101151.63;;;21.09;51.95
64538;BME280;50921;53.132;18.042;2022-08-01T23:49:47;101159.88;;;20.97;52.26
